Latest Weather Observations for Meekatharra

IDW60801

Issued at 6:05 pm WST Saturday 25 October 2014 (issued every 30 minutes, with the page automatically refreshed every 10 minutes)

About weather observations | Map of weather stations | Latest weather observations for WA | Other Formats
Station Details ID: 007045 Name: MEEKATHARRA AIRPORT Lat: -26.61 Lon: 118.54 Height: 517.0 m
Data from the previous 72 hours. | See also: Recent months at Meekatharra
Date/Time
WST
Temp
°C
App
Temp
°C
Dew
Point
Rel
Hum
%
Delta-T
°C
Wind Press
QNH
hPa
Press
MSL
hPa
Rain
since 9 am
mm
Dir
 
Spd
km/h
Gust
km/h
Spd
kts
Gust
kts
25/06:00pm 30.1 23.9 -3.1 11 15.4 SW 20 30 11 16 1016.7 1014.3 0.0
25/05:30pm 30.9 24.6 -3.8 10 16.0 SW 20 28 11 15 1016.4 - 0.0
25/05:00pm 32.1 25.8 -3.7 10 16.7 WSW 20 28 11 15 1016.1 - 0.0
25/04:30pm 32.1 25.8 -3.7 10 16.7 SSW 20 24 11 13 1015.8 - 0.0
25/04:00pm 32.8 26.0 -4.8 8 17.3 WSW 22 28 12 15 1015.7 - 0.0
25/03:30pm 32.5 25.9 -3.5 9 16.9 W 22 37 12 20 1015.6 - 0.0
25/03:00pm 32.5 28.0 -3.0 10 16.8 SW 11 19 6 10 1015.6 1013.2 0.0
25/02:30pm 32.5 24.3 -7.8 7 17.6 W 28 37 15 20 1015.7 - 0.0
25/02:00pm 32.9 25.7 -5.6 8 17.5 WSW 24 35 13 19 1015.9 - 0.0
25/01:30pm 32.4 25.4 -3.3 10 16.8 W 24 33 13 18 1016.2 - 0.0
25/01:00pm 32.3 26.7 0.2 13 16.0 W 19 35 10 19 1016.5 - 0.0
25/12:30pm 31.2 23.6 -1.9 11 15.8 W 28 41 15 22 1016.7 - 0.0
25/12:00pm 30.9 24.5 0.8 14 15.0 W 24 41 13 22 1016.8 1014.4 0.0
25/11:30am 30.6 25.0 1.3 15 14.7 W 20 33 11 18 1017.0 - 0.0
25/11:00am 29.9 25.3 3.5 18 13.7 NW 17 24 9 13 1017.2 - 0.0
25/10:30am 28.7 23.8 4.1 20 12.8 WNW 19 30 10 16 1017.5 - 0.0
25/10:00am 27.7 23.1 5.4 24 11.8 W 19 24 10 13 1017.5 - 0.0
25/09:30am 26.8 23.9 6.5 27 10.9 SW 11 17 6 9 1017.5 - 0.0
25/09:00am 25.3 22.9 7.0 31 9.8 SSW 9 15 5 8 1017.4 1015.0 0.0
25/08:30am 23.9 21.2 7.5 35 8.8 SSW 11 17 6 9 1017.3 - 0.0
25/08:00am 22.8 19.8 7.7 38 8.1 SSW 13 19 7 10 1017.2 - 0.0
25/07:30am 21.7 17.9 7.6 40 7.5 SSW 17 20 9 11 1017.2 - 0.0
25/07:00am 20.7 16.4 7.9 43 6.8 SW 20 24 11 13 1017.0 - 0.0
25/06:30am 20.0 16.6 6.1 40 7.1 W 13 20 7 11 1016.9 - 0.0
25/06:00am 18.9 16.4 5.0 40 6.9 W 7 9 4 5 1016.4 1014.0 0.0
25/05:30am 18.7 15.0 4.2 38 7.1 W 13 15 7 8 1015.9 - 0.0
25/05:00am 19.2 14.8 2.9 34 7.8 W 15 19 8 10 1015.6 - 0.0
25/04:30am 19.3 14.8 -0.3 26 8.8 W 13 15 7 8 1015.4 - 0.0
25/04:00am 20.2 15.6 -4.1 19 10.2 W 11 15 6 8 1015.2 - 0.0
25/03:30am 20.8 16.3 -3.6 19 10.4 W 11 15 6 8 1014.8 - 0.0
25/03:00am 19.7 15.5 -1.0 25 9.2 W 11 17 6 9 1014.5 1012.1 0.0
25/02:30am 19.6 16.3 2.3 31 8.2 W 9 9 5 5 1014.3 - 0.0
25/02:00am 19.9 16.0 1.2 28 8.7 W 11 13 6 7 1014.2 - 0.0
25/01:30am 19.7 17.9 1.5 29 8.5 CALM 0 0 0 0 1014.2 - 0.0
25/01:00am 20.2 17.7 4.5 35 7.8 W 7 9 4 5 1014.4 - 0.0
25/12:30am 21.2 17.6 0.5 25 9.6 W 9 9 5 5 1014.6 - 0.0
25/12:00am 22.0 18.5 1.3 25 9.8 W 9 9 5 5 1014.6 1012.2 0.0
 
Date/Time
WST
Temp
°C
App
Temp
°C
Dew
Point
Rel
Hum
%
Delta-T
°C
Wind Press
QNH
hPa
Press
MSL
hPa
Rain
since 9 am
mm
Dir
 
Spd
km/h
Gust
km/h
Spd
kts
Gust
kts
24/11:30pm 23.8 19.1 -4.6 15 12.2 W 11 13 6 7 1014.7 - 0.0
24/11:00pm 23.9 20.1 -0.4 20 11.3 W 9 9 5 5 1015.2 - 0.0
24/10:30pm 25.7 21.2 -3.0 15 12.9 W 11 13 6 7 1015.3 - 0.0
24/10:00pm 26.1 21.6 -3.4 14 13.2 W 11 13 6 7 1015.3 - 0.0
24/09:30pm 26.4 22.1 -1.7 15 13.0 W 11 13 6 7 1015.2 - 0.0
24/09:00pm 26.7 23.1 0.7 18 12.6 W 9 11 5 6 1015.1 1012.7 0.0
24/08:30pm 27.0 23.3 -0.2 17 13.0 W 9 9 5 5 1014.8 - 0.0
24/08:00pm 28.5 24.2 -1.7 14 14.2 W 11 11 6 6 1014.4 - 0.0
24/07:30pm 28.8 26.0 3.0 19 13.2 W 7 9 4 5 1014.1 - 0.0
24/07:00pm 30.1 26.3 -1.1 13 15.0 W 9 11 5 6 1013.8 - 0.0
24/06:30pm 31.8 27.2 -4.1 9 16.6 W 11 19 6 10 1013.5 - 0.0
24/06:00pm 33.0 27.4 -6.4 7 17.7 W 15 19 8 10 1013.1 1010.7 0.0
24/05:30pm 33.7 27.1 -6.9 7 18.2 W 20 24 11 13 1013.0 - 0.0
24/05:00pm 34.0 27.3 -8.5 6 18.6 NNW 20 30 11 16 1012.9 - 0.0
24/04:30pm 34.7 29.4 -7.7 6 18.9 NNW 13 19 7 10 1012.7 - 0.0
24/04:00pm 34.8 28.2 -7.3 6 18.9 WNW 20 35 11 19 1012.8 - 0.0
24/03:30pm 34.9 28.4 -6.2 7 18.8 NW 20 35 11 19 1013.0 - 0.0
24/03:00pm 34.7 28.0 -8.4 6 19.0 NW 20 32 11 17 1013.1 1010.7 0.0
24/02:30pm 34.8 28.2 -6.6 7 18.8 NW 20 35 11 19 1013.4 - 0.0
24/02:00pm 35.0 29.0 -6.5 7 18.9 NW 17 26 9 14 1013.5 - 0.0
24/01:30pm 34.3 26.7 -9.5 5 18.9 NNW 24 35 13 19 1014.1 - 0.0
24/01:00pm 34.2 28.6 -6.4 7 18.4 NNW 15 24 8 13 1014.2 - 0.0
24/12:30pm 32.7 27.4 -3.9 9 17.1 NW 15 20 8 11 1014.5 - 0.0
24/12:00pm 32.8 26.1 -7.9 7 17.8 N 20 32 11 17 1014.8 1012.4 0.0
24/11:30am 32.9 27.8 -5.0 8 17.4 NNW 13 30 7 16 1015.1 - 0.0
24/11:00am 31.2 27.0 -0.9 12 15.6 N 11 20 6 11 1015.8 - 0.0
24/10:30am 30.4 26.3 0.0 14 14.9 E 11 17 6 9 1016.3 - 0.0
24/10:00am 29.3 25.6 -0.2 15 14.3 E 9 17 5 9 1016.6 - 0.0
24/09:30am 28.4 23.7 0.6 16 13.6 E 15 20 8 11 1016.8 - 0.0
24/09:00am 27.9 22.8 0.6 17 13.3 E 17 26 9 14 1016.7 1014.3 0.0
24/08:30am 26.6 21.6 1.2 19 12.4 E 17 26 9 14 1016.8 - 0.0
24/08:00am 25.3 19.7 1.4 21 11.6 E 20 28 11 15 1016.7 - 0.0
24/07:30am 23.4 18.2 2.2 25 10.3 ESE 19 28 10 15 1016.6 - 0.0
24/07:00am 22.1 17.3 2.8 28 9.4 SSE 17 24 9 13 1016.7 - 0.0
24/06:30am 20.2 16.5 2.4 30 8.5 S 11 17 6 9 1016.5 - 0.0
24/06:00am 18.7 15.0 2.4 33 7.7 S 11 13 6 7 1016.3 1013.9 0.0
24/05:30am 17.5 13.8 2.3 36 7.1 S 11 15 6 8 1016.1 - 0.0
24/05:00am 16.4 13.1 2.7 40 6.4 S 9 11 5 6 1015.7 - 0.0
24/04:30am 16.0 13.0 1.7 38 6.5 S 7 7 4 4 1015.6 - 0.0
24/04:00am 17.6 13.7 1.1 33 7.5 S 11 13 6 7 1015.6 - 0.0
24/03:30am 16.5 13.0 1.3 36 6.9 S 9 11 5 6 1015.6 - 0.0
24/03:00am 17.1 13.6 1.0 33 7.3 S 9 11 5 6 1015.4 1013.0 0.0
24/02:30am 16.1 13.1 1.9 38 6.5 S 7 9 4 5 1015.4 - 0.0
24/02:00am 17.9 13.7 -0.8 28 8.2 S 11 13 6 7 1015.5 - 0.0
24/01:30am 18.0 14.2 1.5 33 7.6 S 11 13 6 7 1015.6 - 0.0
24/01:00am 18.3 14.5 -0.4 28 8.3 S 9 11 5 6 1015.7 - 0.0
24/12:30am 19.5 14.9 -1.4 24 9.2 S 13 13 7 7 1016.1 - 0.0
24/12:00am 19.7 15.5 -1.0 25 9.2 S 11 13 6 7 1016.2 1013.8 0.0
 
Date/Time
WST
Temp
°C
App
Temp
°C
Dew
Point
Rel
Hum
%
Delta-T
°C
Wind Press
QNH
hPa
Press
MSL
hPa
Rain
since 9 am
mm
Dir
 
Spd
km/h
Gust
km/h
Spd
kts
Gust
kts
23/11:30pm 20.1 16.7 1.9 30 8.6 SSW 9 13 5 7 1016.4 - 0.0
23/11:00pm 20.3 16.2 -0.2 25 9.3 SSW 11 13 6 7 1016.5 - 0.0
23/10:30pm 21.2 16.9 -1.9 21 10.2 SSW 11 13 6 7 1016.6 - 0.0
23/10:00pm 22.2 17.8 -2.2 19 10.8 SSW 11 13 6 7 1016.7 - 0.0
23/09:30pm 23.0 18.7 -1.6 19 11.1 SSW 11 11 6 6 1016.8 - 0.0
23/09:00pm 23.7 19.4 -1.7 18 11.5 SSW 11 13 6 7 1016.7 1014.3 0.0
23/08:30pm 24.2 20.3 -1.4 18 11.7 SSW 9 11 5 6 1016.5 - 0.0
23/08:00pm 25.3 20.9 -2.2 16 12.5 S 11 13 6 7 1016.4 - 0.0
23/07:30pm 26.3 21.5 -2.9 14 13.2 SSW 13 17 7 9 1016.1 - 0.0
23/07:00pm 27.3 22.9 -2.1 14 13.6 SSW 11 13 6 7 1015.6 - 0.0
23/06:30pm 28.2 22.2 -3.0 13 14.3 S 19 24 10 13 1015.1 - 0.0
23/06:00pm 29.5 24.0 -5.4 10 15.5 W 15 24 8 13 1014.7 1012.3 0.0
23/05:30pm 30.1 24.1 -11.3 6 16.7 SSW 15 19 8 10 1014.2 - 0.0
23/05:00pm 31.2 25.1 -8.0 7 16.9 WNW 17 26 9 14 1013.9 - 0.0
23/04:30pm 31.2 24.3 -11.1 6 17.3 W 20 28 11 15 1014.1 - 0.0
23/04:00pm 30.9 23.7 -9.3 7 16.9 SW 22 37 12 20 1014.1 - 0.0
23/03:30pm 31.7 26.2 -5.5 9 16.8 WSW 15 26 8 14 1014.1 - 0.0
23/03:00pm 30.6 25.3 -0.7 13 15.2 WSW 17 28 9 15 1014.2 1011.7 0.0
23/02:30pm 30.4 24.9 -2.1 12 15.4 WSW 17 24 9 13 1014.5 - 0.0
23/02:00pm 30.5 24.1 -1.9 12 15.4 WSW 22 33 12 18 1014.8 - 0.0
23/01:30pm 28.1 24.1 2.9 19 12.8 W 13 28 7 15 1015.1 - 0.0
23/01:00pm 28.6 24.9 2.5 18 13.2 WSW 11 20 6 11 1015.4 - 0.0
23/12:30pm 28.1 24.6 5.5 23 12.0 WSW 13 24 7 13 1015.6 - 0.0
23/12:00pm 26.2 23.1 7.2 30 10.3 SSW 13 20 7 11 1016.3 1013.9 0.0
23/11:30am 25.6 22.1 5.6 27 10.5 SW 13 19 7 10 1016.8 - 0.0
23/11:00am 24.9 22.0 8.0 34 9.2 S 13 22 7 12 1017.2 - 0.0
23/10:30am 24.6 22.8 8.1 35 9.0 S 7 13 4 7 1017.7 - 0.0
23/10:00am 22.9 20.1 8.6 40 7.8 S 13 22 7 12 1018.0 - 0.0
23/09:30am 23.0 19.7 8.2 38 8.0 SSE 15 22 8 12 1018.2 - 0.0
23/09:00am 21.4 17.8 8.4 43 7.0 S 17 26 9 14 1018.6 1016.2 0.0
23/08:30am 21.2 17.2 9.1 46 6.6 S 20 32 11 17 1018.7 - 0.0
23/08:00am 20.5 16.2 9.5 49 6.0 S 22 28 12 15 1018.4 - 0.0
23/07:30am 19.3 14.2 9.1 51 5.5 S 26 35 14 19 1018.2 - 0.0
23/07:00am 18.9 14.6 9.5 54 5.1 S 22 30 12 16 1018.0 - 0.0
23/06:30am 18.4 14.3 8.8 53 5.1 SSW 20 28 11 15 1017.8 - 0.0
23/06:00am 17.5 14.6 8.1 54 4.9 S 13 15 7 8 1017.7 1015.3 0.0
23/05:30am 17.0 14.9 8.2 56 4.6 S 9 13 5 7 1017.4 - 0.0
23/05:00am 17.5 15.3 7.9 53 5.0 S 9 15 5 8 1017.0 - 0.0
23/04:30am 18.4 13.9 5.9 44 6.3 SSW 19 30 10 16 1016.8 - 0.0
23/04:00am 19.0 13.7 5.2 40 6.9 SSW 22 30 12 16 1016.8 - 0.0
23/03:30am 20.1 14.1 3.1 32 8.2 SSW 24 32 13 17 1016.6 - 0.0
23/03:00am 20.4 16.0 2.7 31 8.5 WSW 15 20 8 11 1016.5 1014.1 0.0
23/02:30am 20.5 16.5 2.6 30 8.6 WSW 13 15 7 8 1016.4 - 0.0
23/02:00am 21.1 17.4 2.6 29 8.9 WSW 11 13 6 7 1016.3 - 0.0
23/01:30am 22.1 17.6 2.2 27 9.6 WSW 15 17 8 9 1016.2 - 0.0
23/01:00am 22.9 18.0 2.3 26 10.0 WSW 17 24 9 13 1016.3 - 0.0
23/12:30am 23.3 19.0 3.4 27 9.9 WSW 15 20 8 11 1016.4 - 0.0
23/12:00am 24.0 19.7 6.9 33 9.1 W 19 26 10 14 1016.5 1014.1 0.0
 
Date/Time
WST
Temp
°C
App
Temp
°C
Dew
Point
Rel
Hum
%
Delta-T
°C
Wind Press
QNH
hPa
Press
MSL
hPa
Rain
since 9 am
mm
Dir
 
Spd
km/h
Gust
km/h
Spd
kts
Gust
kts
22/11:30pm 24.4 21.4 7.5 34 9.1 W 13 19 7 10 1016.5 - 0.0
22/11:00pm 25.2 21.7 7.2 31 9.7 WNW 15 20 8 11 1016.7 - 0.0
22/10:30pm 25.0 22.6 6.8 31 9.7 WNW 9 11 5 6 1016.8 - 0.0
22/10:00pm 26.1 23.1 5.8 27 10.7 WNW 11 15 6 8 1017.0 - 0.0
22/09:30pm 27.0 23.4 5.0 24 11.5 WNW 13 20 7 11 1017.1 - 0.0
22/09:00pm 27.4 23.3 4.5 23 11.9 NW 15 19 8 10 1017.1 1014.7 0.0
22/08:30pm 27.8 22.8 3.7 21 12.4 NW 19 24 10 13 1017.1 - 0.0
22/08:00pm 27.9 23.6 3.5 21 12.5 NW 15 19 8 10 1016.9 - 0.0
22/07:30pm 28.1 23.7 2.5 19 12.9 NW 15 20 8 11 1016.7 - 0.0
22/07:00pm 28.7 23.4 1.6 17 13.5 NW 19 24 10 13 1016.4 - 0.0
22/06:30pm 29.4 23.3 0.5 15 14.2 NW 22 28 12 15 1016.1 - 0.0

Other Formats:

Comma delimited format used in spreadsheet applications
http://www.bom.gov.au/fwo/IDW60801/IDW60801.94430.axf

JavaScript Object Notation format (JSON) in row-major order
http://www.bom.gov.au/fwo/IDW60801/IDW60801.94430.json